createdAt,value
2018-05-02T00:00:09.946Z,56.78
2018-05-02T00:01:20.131Z,57.54
2018-05-02T00:02:30.274Z,57.26
2018-05-02T00:03:40.435Z,57.82
2018-05-02T00:04:50.714Z,57.73
2018-05-02T00:06:00.857Z,58.21
2018-05-02T00:07:11.055Z,58.4
2018-05-02T00:08:20.936Z,58.4
2018-05-02T00:09:31.057Z,58.56
2018-05-02T00:10:41.215Z,59.03
2018-05-02T00:11:51.379Z,58.87
2018-05-02T00:13:01.629Z,58.56
2018-05-02T00:14:11.776Z,59.26
2018-05-02T00:15:21.952Z,58.65
2018-05-02T00:16:32.103Z,58.84
2018-05-02T00:17:42.267Z,58.94
2018-05-02T00:18:52.393Z,58.65
2018-05-02T00:20:02.533Z,59.03
2018-05-02T00:21:12.681Z,59.13
2018-05-02T00:22:22.622Z,59.42
2018-05-02T00:23:32.752Z,59.61
2018-05-02T00:24:43.008Z,59.8
2018-05-02T00:25:53.205Z,59.7
2018-05-02T00:27:03.475Z,59.89
2018-05-02T00:28:13.613Z,60.18
2018-05-02T00:29:23.805Z,60.08
2018-05-02T00:30:33.952Z,60.27
2018-05-02T00:31:43.737Z,60.94
2018-05-02T00:32:53.971Z,60.56
2018-05-02T00:34:03.980Z,61.22
2018-05-02T00:35:14.383Z,60.85
2018-05-02T00:36:24.214Z,61.32
2018-05-02T00:37:34.347Z,61.42
2018-05-02T00:38:44.488Z,61.61
2018-05-02T00:39:54.389Z,61.61
2018-05-02T00:41:04.636Z,61.58
2018-05-02T00:42:14.793Z,61.48
2018-05-02T00:43:24.939Z,61.77
2018-05-02T00:44:35.127Z,61.48
2018-05-02T00:45:45.086Z,61.38
2018-05-02T00:46:55.328Z,61.48
2018-05-02T00:48:05.456Z,61.38
2018-05-02T00:49:15.616Z,61.77
2018-05-02T00:50:25.858Z,61.77
2018-05-02T00:51:35.992Z,62.53
2018-05-02T00:52:46.154Z,62.05
2018-05-02T00:53:56.270Z,61.96
2018-05-02T00:55:06.395Z,62.05
2018-05-02T00:56:16.608Z,62.43
2018-05-02T00:57:26.837Z,62.62
2018-05-02T00:58:36.973Z,62.53
2018-05-02T00:59:47.102Z,62.62
2018-05-02T01:00:57.254Z,62.62
2018-05-02T01:02:07.552Z,62.43
2018-05-02T01:03:17.724Z,62.62
2018-05-02T01:04:27.883Z,62.53
2018-05-02T01:05:38.001Z,62.34
2018-05-02T01:06:48.212Z,62.62
2018-05-02T01:07:58.335Z,63.1
2018-05-02T01:09:08.465Z,62.91
2018-05-02T01:10:18.387Z,63.48
2018-05-02T01:11:28.538Z,63.39
2018-05-02T01:12:38.390Z,63.48
2018-05-02T01:13:48.540Z,63.86
2018-05-02T01:14:58.408Z,63.76
2018-05-02T01:16:08.537Z,64.05
2018-05-02T01:17:18.649Z,63.96
2018-05-02T01:18:28.803Z,63.86
2018-05-02T01:19:38.969Z,63.57
2018-05-02T01:20:49.172Z,63.76
2018-05-02T01:21:59.320Z,63.96
2018-05-02T01:23:09.578Z,63.96
2018-05-02T01:24:19.752Z,63.86
2018-05-02T01:25:29.889Z,64.15
2018-05-02T01:26:40.036Z,64.43
2018-05-02T01:27:50.171Z,64.34
2018-05-02T01:28:59.954Z,64.34
2018-05-02T01:30:10.085Z,64.34
2018-05-02T01:31:21.281Z,64.43
2018-05-02T01:32:31.446Z,64.53
2018-05-02T01:33:41.625Z,64.62
2018-05-02T01:34:51.775Z,64.34
2018-05-02T01:36:01.645Z,64.62
2018-05-02T01:37:11.800Z,64.72
2018-05-02T01:38:21.925Z,64.34
2018-05-02T01:39:32.066Z,64.15
2018-05-02T01:40:42.194Z,64.05
2018-05-02T01:41:52.322Z,63.76
2018-05-02T01:43:02.545Z,63.86
2018-05-02T01:44:12.797Z,63.86
2018-05-02T01:45:22.955Z,64.34
2018-05-02T01:46:33.164Z,64.34
2018-05-02T01:47:43.332Z,64.43
2018-05-02T01:48:53.504Z,64.15
2018-05-02T01:50:03.711Z,64.15
2018-05-02T01:51:13.604Z,64.24
2018-05-02T01:52:24.702Z,64.15
2018-05-02T01:53:34.826Z,64.72
2018-05-02T01:54:45.000Z,64.53
2018-05-02T01:55:55.141Z,64.43
2018-05-02T01:57:05.319Z,65.16
2018-05-02T01:58:15.182Z,64.87
2018-05-02T01:59:57.253Z,64.81
2018-05-02T02:01:07.430Z,64.62
2018-05-02T02:02:17.574Z,64.97
2018-05-02T02:03:27.464Z,65.1
2018-05-02T02:04:37.704Z,65.16
2018-05-02T02:05:47.947Z,65
2018-05-02T02:06:58.079Z,65.29
2018-05-02T02:08:08.240Z,65.19
2018-05-02T02:09:18.449Z,65.45
2018-05-02T02:10:28.609Z,65.16
2018-05-02T02:11:38.720Z,65.25
2018-05-02T02:12:48.859Z,65.06
2018-05-02T02:13:58.988Z,65.45
2018-05-02T02:15:09.116Z,65.45
2018-05-02T02:16:19.332Z,65.83
2018-05-02T02:17:29.553Z,66.02
2018-05-02T02:18:39.761Z,65.83
2018-05-02T02:19:49.993Z,65.64
2018-05-02T02:21:00.200Z,65.54
2018-05-02T02:22:10.330Z,65.54
2018-05-02T02:23:20.475Z,65.54
2018-05-02T02:24:30.454Z,65.73
2018-05-02T02:25:40.338Z,66.2
2018-05-02T02:26:50.485Z,66.02
2018-05-02T02:28:00.618Z,66.2
2018-05-02T02:29:10.800Z,66.02
2018-05-02T02:30:21.049Z,66.02
2018-05-02T02:31:30.920Z,66.11
2018-05-02T02:32:41.046Z,66.11
2018-05-02T02:33:52.281Z,66.3
2018-05-02T02:35:02.248Z,66.68
2018-05-02T02:36:12.421Z,66.39
2018-05-02T02:37:22.333Z,66.39
2018-05-02T02:38:32.463Z,66.49
2018-05-02T02:39:42.610Z,66.39
2018-05-02T02:40:52.767Z,66.84
2018-05-02T02:42:02.922Z,67.03
2018-05-02T02:43:13.066Z,66.74
2018-05-02T02:44:23.319Z,66.84
2018-05-02T02:45:33.516Z,66.84
2018-05-02T02:46:43.373Z,66.84
2018-05-02T02:47:53.381Z,66.94
2018-05-02T02:49:03.631Z,67.22
2018-05-02T02:50:13.813Z,67.5
2018-05-02T02:51:23.693Z,67.22
2018-05-02T02:52:33.828Z,67.32
2018-05-02T02:53:43.751Z,67.13
2018-05-02T02:54:53.917Z,66.94
2018-05-02T02:56:04.073Z,66.84
2018-05-02T02:57:14.219Z,66.94
2018-05-02T02:58:24.331Z,67.03
2018-05-02T02:59:34.456Z,67.13
2018-05-02T03:00:44.578Z,67.32
2018-05-02T03:01:54.771Z,67.41
2018-05-02T03:03:04.886Z,67.22
2018-05-02T03:04:15.057Z,67.5
2018-05-02T03:05:24.972Z,67.69
2018-05-02T03:06:35.094Z,67.79
2018-05-02T03:07:45.226Z,67.98
2018-05-02T03:08:55.389Z,67.22
2018-05-02T03:10:05.629Z,67.98
2018-05-02T03:11:15.245Z,67.69
2018-05-02T03:12:25.118Z,67.79
2018-05-02T03:13:35.332Z,67.6
2018-05-02T03:14:45.566Z,67.98
2018-05-02T03:15:55.818Z,67.98
2018-05-02T03:17:05.992Z,67.98
2018-05-02T03:18:16.277Z,68.07
2018-05-02T03:19:26.436Z,68.17
2018-05-02T03:20:36.306Z,67.79
2018-05-02T03:21:46.161Z,68.27
2018-05-02T03:22:56.291Z,68.07
2018-05-02T03:24:06.407Z,68.46
2018-05-02T03:25:16.516Z,67.98
2018-05-02T03:26:26.677Z,68.65
2018-05-02T03:27:36.815Z,68.74
2018-05-02T03:28:46.950Z,68.36
2018-05-02T03:29:57.067Z,68.27
2018-05-02T03:31:07.324Z,68.55
2018-05-02T03:32:17.184Z,68.36
2018-05-02T03:33:27.301Z,68.36
2018-05-02T03:34:37.508Z,68.46
2018-05-02T03:35:47.620Z,68.36
2018-05-02T03:36:57.873Z,68.46
2018-05-02T03:38:08.076Z,68.17
2018-05-02T03:39:18.265Z,68.07
2018-05-02T03:40:28.486Z,68.07
2018-05-02T03:41:38.615Z,68.27
2018-05-02T03:42:48.747Z,68.46
2018-05-02T03:43:58.872Z,68.27
2018-05-02T03:45:09.019Z,68.36
2018-05-02T03:46:19.147Z,68.17
2018-05-02T03:47:29.020Z,68.27
2018-05-02T03:48:39.146Z,68.36
2018-05-02T03:49:49.270Z,68.65
2018-05-02T03:50:59.511Z,68.55
2018-05-02T03:52:09.732Z,68.84
2018-05-02T03:53:19.626Z,68.84
2018-05-02T03:54:29.543Z,68.65
2018-05-02T03:55:39.686Z,68.65
2018-05-02T03:56:49.935Z,68.23
2018-05-02T03:58:00.048Z,68.42
2018-05-02T03:59:10.254Z,68.23
2018-05-02T04:00:20.390Z,68.46
2018-05-02T04:01:30.547Z,68.33
2018-05-02T04:02:40.671Z,68.17
2018-05-02T04:03:50.805Z,67.85
2018-05-02T04:05:00.583Z,68.04
2018-05-02T04:06:10.709Z,68.04
2018-05-02T04:07:20.863Z,68.04
2018-05-02T04:08:31.112Z,68.23
2018-05-02T04:09:41.513Z,68.13
2018-05-02T04:10:51.774Z,68.23
2018-05-02T04:12:02.200Z,68.23
2018-05-02T04:13:12.333Z,68.42
2018-05-02T04:14:22.596Z,68.23
2018-05-02T04:15:32.908Z,68.23
2018-05-02T04:16:43.063Z,68.42
2018-05-02T04:17:53.835Z,68.13
2018-05-02T04:19:03.593Z,68.13
2018-05-02T04:20:13.752Z,68.61
2018-05-02T04:21:23.918Z,68.61
2018-05-02T04:22:34.049Z,68.8
2018-05-02T04:23:44.302Z,68.8
2018-05-02T04:24:54.576Z,68.61
2018-05-02T04:26:04.789Z,68.61
2018-05-02T04:27:15.243Z,67.94
2018-05-02T04:28:25.367Z,68.52
2018-05-02T04:29:35.513Z,68.42
2018-05-02T04:30:45.402Z,68.23
2018-05-02T04:31:55.546Z,68.23
2018-05-02T04:33:05.671Z,68.23
2018-05-02T04:34:15.839Z,68.23
2018-05-02T04:35:27.023Z,68.23
2018-05-02T04:36:37.211Z,68.33
2018-05-02T04:37:47.370Z,68.8
2018-05-02T04:38:57.525Z,68.65
2018-05-02T04:40:07.646Z,68.65
2018-05-02T04:41:17.414Z,68.93
2018-05-02T04:42:27.549Z,68.93
2018-05-02T04:43:37.699Z,68.93
2018-05-02T04:44:47.884Z,68.65
2018-05-02T04:45:58.079Z,68.36
2018-05-02T04:47:08.273Z,68.07
2018-05-02T04:48:18.463Z,68.36
2018-05-02T04:49:28.661Z,68.17
2018-05-02T04:50:38.785Z,68.27
2018-05-02T04:51:48.923Z,67.98
2018-05-02T04:52:59.048Z,68.17
2018-05-02T04:54:09.223Z,67.6
2018-05-02T04:55:19.038Z,67.69
2018-05-02T04:56:29.372Z,67.88
2018-05-02T04:57:39.574Z,67.5
2018-05-02T04:58:49.691Z,67.79
2018-05-02T04:59:59.831Z,67.41
2018-05-02T05:01:09.974Z,67.35
2018-05-02T05:02:20.146Z,68.11
2018-05-02T05:03:30.321Z,67.92
2018-05-02T05:04:40.569Z,67.73
2018-05-02T05:05:50.781Z,67.35
2018-05-02T05:07:00.963Z,67.16
2018-05-02T05:08:10.827Z,67.35
2018-05-02T05:09:21.003Z,67.92
2018-05-02T05:10:31.345Z,67.82
2018-05-02T05:11:41.498Z,67.73
2018-05-02T05:12:51.705Z,67.95
2018-05-02T05:14:01.816Z,67.67
2018-05-02T05:15:11.961Z,68.15
2018-05-02T05:16:22.209Z,67.95
2018-05-02T05:17:32.443Z,67.86
2018-05-02T05:18:42.592Z,68.24
2018-05-02T05:19:52.728Z,67.67
2018-05-02T05:21:02.927Z,67.76
2018-05-02T05:22:13.116Z,67.38
2018-05-02T05:23:23.246Z,67.86
2018-05-02T05:24:32.916Z,67.67
2018-05-02T05:25:43.174Z,67.19
2018-05-02T05:26:53.325Z,67.41
2018-05-02T05:28:03.607Z,67.22
2018-05-02T05:29:13.899Z,66.85
2018-05-02T05:30:24.029Z,67.13
2018-05-02T05:31:34.191Z,66.75
2018-05-02T05:32:44.445Z,66.75
2018-05-02T05:33:54.585Z,66.66
2018-05-02T05:35:04.759Z,66.08
2018-05-02T05:36:14.948Z,65.73
2018-05-02T05:37:26.076Z,65.73
2018-05-02T05:38:36.202Z,65.55
2018-05-02T05:39:46.342Z,64.97
2018-05-02T05:40:56.546Z,64.5
2018-05-02T05:42:06.759Z,64.31
2018-05-02T05:43:16.885Z,64.4
2018-05-02T05:44:27.066Z,64.21
2018-05-02T05:45:37.195Z,63.86
2018-05-02T05:46:47.322Z,62.91
2018-05-02T05:47:57.484Z,62.72
2018-05-02T05:49:07.641Z,62.05
2018-05-02T05:50:17.850Z,61.48
2018-05-02T05:51:27.774Z,61.38
2018-05-02T05:52:37.898Z,61.29
2018-05-02T05:53:47.558Z,61.1
2018-05-02T05:54:57.431Z,60.72
2018-05-02T05:56:07.604Z,60.05
2018-05-02T05:57:17.464Z,60.14
2018-05-02T05:58:27.598Z,59.79
2018-05-02T05:59:37.726Z,59.6
2018-05-02T06:00:48.000Z,59.03
2018-05-02T06:01:58.019Z,58.91
2018-05-02T06:03:08.250Z,59
2018-05-02T06:04:17.822Z,58.75
2018-05-02T06:05:28.000Z,58.55
2018-05-02T06:06:38.177Z,58.43
2018-05-02T06:07:48.486Z,58.46
2018-05-02T06:08:58.669Z,58.36
2018-05-02T06:10:08.568Z,57.7
2018-05-02T06:11:18.714Z,57.89
2018-05-02T06:12:28.621Z,57.89
2018-05-02T06:13:38.821Z,57.41
2018-05-02T06:14:48.691Z,56.84
2018-05-02T06:15:58.841Z,56.93
2018-05-02T06:17:08.520Z,57.03
2018-05-02T06:18:18.771Z,57.5
2018-05-02T06:19:28.957Z,57.6
2018-05-02T06:20:39.083Z,57.03
2018-05-02T06:21:49.245Z,56.93
2018-05-02T06:22:59.399Z,56.93
2018-05-02T06:24:09.605Z,57.12
2018-05-02T06:25:19.601Z,56.74
2018-05-02T06:26:29.465Z,56.74
2018-05-02T06:27:39.602Z,57.03
2018-05-02T06:28:49.776Z,57.03
2018-05-02T06:29:59.982Z,56.84
2018-05-02T06:31:10.241Z,57.03
2018-05-02T06:32:20.451Z,57.06
2018-05-02T06:33:30.630Z,56.74
2018-05-02T06:34:40.868Z,57.06
2018-05-02T06:35:50.996Z,56.58
2018-05-02T06:37:01.152Z,56.58
2018-05-02T06:38:11.288Z,56.48
2018-05-02T06:39:21.400Z,56.2
2018-05-02T06:40:31.270Z,56.29
2018-05-02T06:41:41.144Z,56.48
2018-05-02T06:42:51.288Z,56.48
2018-05-02T06:44:01.242Z,56.38
2018-05-02T06:45:11.163Z,56.1
2018-05-02T06:46:21.299Z,56.01
2018-05-02T06:47:31.443Z,56.2
2018-05-02T06:48:41.605Z,55.91
2018-05-02T06:49:51.838Z,56.01
2018-05-02T06:51:01.995Z,56.01
2018-05-02T06:52:12.283Z,56.01
2018-05-02T06:53:22.466Z,56.2
2018-05-02T06:54:32.342Z,56.01
2018-05-02T06:55:42.573Z,56.1
2018-05-02T06:56:52.711Z,56.29
2018-05-02T06:58:02.978Z,55.91
2018-05-02T06:59:13.137Z,56.13
2018-05-02T07:00:23.415Z,56.13
2018-05-02T07:01:33.594Z,55.94
2018-05-02T07:02:43.789Z,55.84
2018-05-02T07:03:53.961Z,55.36
2018-05-02T07:05:04.124Z,55.27
2018-05-02T07:06:14.335Z,55.18
2018-05-02T07:07:24.649Z,54.79
2018-05-02T07:08:34.866Z,54.79
2018-05-02T07:09:45.112Z,54.99
2018-05-02T07:10:55.367Z,54.79
2018-05-02T07:12:05.661Z,54.79
2018-05-02T07:13:15.815Z,54.7
2018-05-02T07:14:25.998Z,54.03
2018-05-02T07:15:36.147Z,54.03
2018-05-02T07:16:46.514Z,54.13
2018-05-02T07:17:56.712Z,54.22
2018-05-02T07:19:06.890Z,54.22
2018-05-02T07:20:17.021Z,54.03
2018-05-02T07:21:27.145Z,53.93
2018-05-02T07:22:37.282Z,53.93
2018-05-02T07:23:47.411Z,53.74
2018-05-02T07:24:57.567Z,53.65
2018-05-02T07:26:07.748Z,53.84
2018-05-02T07:27:17.900Z,54.03
2018-05-02T07:28:27.771Z,54.13
2018-05-02T07:29:37.936Z,54.03
2018-05-02T07:30:49.081Z,53.45
2018-05-02T07:31:59.353Z,53.74
2018-05-02T07:33:09.778Z,53.55
2018-05-02T07:34:19.907Z,53.86
2018-05-02T07:35:30.058Z,53.86
2018-05-02T07:36:40.213Z,53.77
2018-05-02T07:37:50.386Z,53.77
2018-05-02T07:39:00.630Z,53.39
2018-05-02T07:40:10.893Z,53.77
2018-05-02T07:41:21.116Z,53.67
2018-05-02T07:42:31.445Z,53.96
2018-05-02T07:43:41.582Z,53.96
2018-05-02T07:44:51.812Z,53.67
2018-05-02T07:46:02.016Z,53.2
2018-05-02T07:47:12.165Z,53
2018-05-02T07:48:22.397Z,53.32
2018-05-02T07:49:32.576Z,53.32
2018-05-02T07:50:42.788Z,53.32
2018-05-02T07:51:53.022Z,53.41
2018-05-02T07:53:03.165Z,53.13
2018-05-02T07:54:13.320Z,52.94
2018-05-02T07:55:23.605Z,52.94
2018-05-02T07:56:33.592Z,53.22
2018-05-02T07:57:43.962Z,53.13
2018-05-02T07:58:53.830Z,53.22
2018-05-02T08:00:04.025Z,53.13
2018-05-02T08:01:14.144Z,53.32
2018-05-02T08:02:24.043Z,53.13
2018-05-02T08:03:34.324Z,53.06
2018-05-02T08:04:44.498Z,52.96
2018-05-02T08:05:54.672Z,53.06
2018-05-02T08:07:04.852Z,53.16
2018-05-02T08:08:15.001Z,53.16
2018-05-02T08:09:25.150Z,52.96
2018-05-02T08:10:35.052Z,52.87
2018-05-02T08:11:45.189Z,52.96
2018-05-02T08:12:55.382Z,53.44
2018-05-02T08:14:05.263Z,52.58
2018-05-02T08:15:14.797Z,52.48
2018-05-02T08:16:26.098Z,52.58
2018-05-02T08:17:36.206Z,52.29
2018-05-02T08:18:46.342Z,52.2
2018-05-02T08:19:56.506Z,52.1
2018-05-02T08:21:06.653Z,52.29
2018-05-02T08:22:16.578Z,51.72
2018-05-02T08:23:26.710Z,51.15
2018-05-02T08:24:36.627Z,51.05
2018-05-02T08:25:46.761Z,51.34
2018-05-02T08:26:56.915Z,51.43
2018-05-02T08:28:07.087Z,51.15
2018-05-02T08:29:17.242Z,50.57
2018-05-02T08:30:27.444Z,50.67
2018-05-02T08:31:37.607Z,50.57
2018-05-02T08:32:47.820Z,50.48
2018-05-02T08:33:58.197Z,50.76
2018-05-02T08:35:07.807Z,50.86
2018-05-02T08:36:17.948Z,50.5
2018-05-02T08:37:28.100Z,50.48
2018-05-02T08:38:38.230Z,50.79
2018-05-02T08:39:48.395Z,50.31
2018-05-02T08:40:58.557Z,50.21
2018-05-02T08:42:07.844Z,49.84
2018-05-02T08:43:17.471Z,49.64
2018-05-02T08:44:27.355Z,49.07
2018-05-02T08:45:37.579Z,49.35
2018-05-02T08:46:47.463Z,49.16
2018-05-02T08:47:57.620Z,48.88
2018-05-02T08:49:07.896Z,48.88
2018-05-02T08:50:17.675Z,48.88
2018-05-02T08:51:27.611Z,48.88
2018-05-02T08:52:37.887Z,48.68
2018-05-02T08:53:48.082Z,48.88
2018-05-02T08:54:57.708Z,48.97
2018-05-02T08:56:07.620Z,48.8
2018-05-02T08:57:17.861Z,48.8
2018-05-02T08:58:28.033Z,48.61
2018-05-02T08:59:37.960Z,48.71
2018-05-02T09:00:47.835Z,48.42
2018-05-02T09:01:57.920Z,48.23
2018-05-02T09:03:08.054Z,48.04
2018-05-02T09:04:18.208Z,47.87
2018-05-02T09:05:28.363Z,48.07
2018-05-02T09:06:38.586Z,47.58
2018-05-02T09:07:48.743Z,47.68
2018-05-02T09:08:58.790Z,47.3
2018-05-02T09:10:09.178Z,46.82
2018-05-02T09:11:19.367Z,46.91
2018-05-02T09:12:29.497Z,46.91
2018-05-02T09:13:39.645Z,46.91
2018-05-02T09:14:49.791Z,46.72
2018-05-02T09:15:59.931Z,46.84
2018-05-02T09:17:11.070Z,46.17
2018-05-02T09:18:20.829Z,46.46
2018-05-02T09:19:31.016Z,46.17
2018-05-02T09:20:41.200Z,45.79
2018-05-02T09:21:51.454Z,45.79
2018-05-02T09:23:01.615Z,45.9
2018-05-02T09:24:12.043Z,46
2018-05-02T09:25:22.209Z,45.52
2018-05-02T09:26:32.412Z,45.33
2018-05-02T09:27:42.587Z,44.97
2018-05-02T09:28:52.507Z,45.14
2018-05-02T09:30:02.672Z,45.33
2018-05-02T09:31:12.833Z,45.23
2018-05-02T09:32:22.851Z,45.23
2018-05-02T09:33:33.055Z,45.33
2018-05-02T09:34:43.210Z,45.23
2018-05-02T09:35:53.108Z,45.43
2018-05-02T09:37:03.349Z,45.04
2018-05-02T09:38:13.236Z,45.04
2018-05-02T09:39:24.357Z,45.23
2018-05-02T09:40:34.516Z,45.33
2018-05-02T09:41:44.400Z,45.14
2018-05-02T09:42:54.569Z,45.23
2018-05-02T09:44:04.825Z,44.87
2018-05-02T09:45:15.109Z,43.91
2018-05-02T09:46:25.262Z,43.63
2018-05-02T09:47:35.409Z,43.63
2018-05-02T09:48:45.567Z,43.73
2018-05-02T09:49:55.888Z,43.82
2018-05-02T09:51:06.140Z,43.15
2018-05-02T09:52:16.312Z,43.34
2018-05-02T09:53:26.466Z,43.05
2018-05-02T09:54:36.627Z,42.86
2018-05-02T09:55:46.908Z,42.96
2018-05-02T09:56:57.082Z,42.77
2018-05-02T09:58:07.355Z,42.67
2018-05-02T09:59:17.547Z,42.98
2018-05-02T10:00:27.716Z,42.77
2018-05-02T10:01:37.904Z,42.88
2018-05-02T10:02:48.052Z,42.6
2018-05-02T10:03:58.192Z,42.69
2018-05-02T10:05:08.355Z,42.02
2018-05-02T10:06:18.493Z,42.3
2018-05-02T10:07:28.108Z,42.21
2018-05-02T10:08:38.347Z,42.11
2018-05-02T10:09:48.485Z,41.63
2018-05-02T10:10:58.644Z,41.27
2018-05-02T10:12:08.812Z,41.37
2018-05-02T10:13:18.944Z,41.16
2018-05-02T10:14:29.157Z,41.44
2018-05-02T10:15:39.348Z,41.66
2018-05-02T10:16:49.523Z,41.17
2018-05-02T10:17:59.693Z,41.17
2018-05-02T10:19:09.891Z,41.37
2018-05-02T10:20:19.751Z,41.46
2018-05-02T10:21:29.934Z,41.37
2018-05-02T10:22:40.131Z,40.89
2018-05-02T10:23:50.393Z,40.7
2018-05-02T10:25:00.549Z,40.7
2018-05-02T10:26:10.866Z,40.7
2018-05-02T10:27:21.101Z,40.79
2018-05-02T10:28:31.248Z,40.6
2018-05-02T10:29:41.408Z,40.99
2018-05-02T10:30:51.657Z,40.99
2018-05-02T10:32:01.886Z,41.08
2018-05-02T10:33:12.116Z,40.7
2018-05-02T10:34:22.279Z,40.6
2018-05-02T10:35:32.487Z,40.89
2018-05-02T10:36:42.659Z,40.6
2018-05-02T10:37:52.901Z,40.99
2018-05-02T10:39:03.143Z,40.99
2018-05-02T10:40:13.441Z,40.99
2018-05-02T10:41:23.672Z,40.62
2018-05-02T10:42:33.544Z,40.99
2018-05-02T10:43:43.679Z,40.5
2018-05-02T10:44:53.849Z,40.7
2018-05-02T10:46:03.728Z,40.72
2018-05-02T10:47:13.854Z,40.41
2018-05-02T10:48:23.736Z,40.41
2018-05-02T10:49:34.857Z,40.6
2018-05-02T10:50:44.874Z,40.6
2018-05-02T10:51:54.774Z,40.7
2018-05-02T10:53:04.905Z,40.6
2018-05-02T10:54:15.083Z,40.7
2018-05-02T10:55:25.085Z,40.79
2018-05-02T10:56:34.973Z,40.89
2018-05-02T10:57:45.157Z,41.17
2018-05-02T10:58:55.342Z,41.37
2018-05-02T11:00:05.538Z,40.99
2018-05-02T11:01:15.703Z,40.99
2018-05-02T11:02:25.854Z,41.17
2018-05-02T11:03:36.023Z,40.99
2018-05-02T11:04:46.170Z,40.79
2018-05-02T11:05:56.057Z,40.99
2018-05-02T11:07:06.236Z,40.79
2018-05-02T11:08:16.491Z,40.7
2018-05-02T11:09:26.872Z,40.6
2018-05-02T11:10:37.076Z,40.7
2018-05-02T11:11:47.332Z,40.89
2018-05-02T11:12:57.349Z,40.67
2018-05-02T11:14:07.510Z,40.87
2018-05-02T11:15:17.649Z,40.96
2018-05-02T11:16:27.863Z,40.77
2018-05-02T11:17:37.999Z,40.96
2018-05-02T11:18:47.695Z,41.16
2018-05-02T11:19:57.848Z,41.06
2018-05-02T11:21:08.038Z,40.87
2018-05-02T11:22:18.199Z,40.87
2018-05-02T11:23:28.391Z,40.87
2018-05-02T11:24:38.627Z,40.67
2018-05-02T11:25:48.773Z,40.77
2018-05-02T11:26:58.926Z,40.58
2018-05-02T11:28:09.103Z,40.48
2018-05-02T11:29:19.390Z,39.72
2018-05-02T11:30:29.614Z,40.29
2018-05-02T11:31:39.765Z,40.2
2018-05-02T11:32:49.640Z,40.2
2018-05-02T11:33:59.787Z,40.39
2018-05-02T11:35:09.984Z,40.39
2018-05-02T11:36:20.249Z,40.2
2018-05-02T11:37:30.473Z,40.2
2018-05-02T11:38:40.694Z,40.29
2018-05-02T11:39:50.852Z,40.77
2018-05-02T11:41:01.051Z,40.48
2018-05-02T11:42:10.898Z,40.67
2018-05-02T11:43:22.025Z,40.67
2018-05-02T11:44:32.163Z,40.47
2018-05-02T11:45:42.301Z,40.84
2018-05-02T11:46:52.231Z,40.75
2018-05-02T11:48:02.449Z,40.84
2018-05-02T11:49:12.654Z,41.04
2018-05-02T11:50:22.841Z,40.84
2018-05-02T11:51:33.076Z,41.13
2018-05-02T11:52:43.255Z,41.04
2018-05-02T11:53:53.430Z,40.87
2018-05-02T11:55:03.680Z,40.67
2018-05-02T11:56:13.940Z,40.77
2018-05-02T11:57:24.100Z,41.16
2018-05-02T11:58:34.015Z,40.58
2018-05-02T11:59:44.156Z,41.06
2018-05-02T12:00:54.303Z,40.58
2018-05-02T12:02:04.437Z,40.67
2018-05-02T12:03:14.794Z,40.48
2018-05-02T12:04:24.992Z,40.58
2018-05-02T12:05:35.200Z,40.58
2018-05-02T12:06:45.425Z,40.87
2018-05-02T12:07:55.651Z,40.77
2018-05-02T12:09:05.823Z,40.77
2018-05-02T12:10:15.988Z,40.87
2018-05-02T12:11:26.306Z,40.77
2018-05-02T12:12:36.436Z,40.67
2018-05-02T12:13:46.594Z,40.67
2018-05-02T12:14:56.736Z,40.77
2018-05-02T12:16:06.771Z,40.77
2018-05-02T12:17:17.046Z,40.87
2018-05-02T12:18:27.199Z,40.87
2018-05-02T12:19:37.375Z,41.06
2018-05-02T12:20:47.613Z,40.67
2018-05-02T12:21:57.629Z,40.67
2018-05-02T12:23:07.934Z,40.67
2018-05-02T12:24:18.103Z,40.79
2018-05-02T12:25:28.269Z,40.7
2018-05-02T12:26:38.411Z,40.31
2018-05-02T12:27:48.669Z,40.31
2018-05-02T12:28:58.906Z,40.22
2018-05-02T12:30:09.066Z,40.22
2018-05-02T12:31:19.202Z,40.6
2018-05-02T12:32:29.398Z,40.5
2018-05-02T12:33:39.555Z,40.31
2018-05-02T12:34:49.748Z,40.22
2018-05-02T12:35:59.899Z,40.22
2018-05-02T12:37:09.882Z,40.5
2018-05-02T12:38:20.049Z,40.41
2018-05-02T12:39:30.263Z,40.41
2018-05-02T12:40:40.145Z,39.83
2018-05-02T12:41:50.441Z,39.45
2018-05-02T12:43:00.610Z,39.45
2018-05-02T12:44:10.762Z,39.45
2018-05-02T12:45:20.918Z,39.73
2018-05-02T12:46:30.850Z,39.73
2018-05-02T12:47:41.130Z,39.93
2018-05-02T12:48:51.029Z,39.93
2018-05-02T12:50:01.201Z,39.93
2018-05-02T12:51:11.369Z,40.22
2018-05-02T12:52:21.539Z,40.31
2018-05-02T12:53:31.691Z,40.22
2018-05-02T12:54:41.586Z,40.31
2018-05-02T12:55:51.773Z,40.31
2018-05-02T12:57:02.275Z,39.64
2018-05-02T12:58:12.420Z,39.93
2018-05-02T12:59:22.588Z,39.83
2018-05-02T13:00:32.771Z,39.73
2018-05-02T13:01:44.009Z,40
2018-05-02T13:02:54.171Z,40
2018-05-02T13:04:04.313Z,39.62
2018-05-02T13:05:14.464Z,39.81
2018-05-02T13:06:24.609Z,39.72
2018-05-02T13:07:34.745Z,39.43
2018-05-02T13:08:44.883Z,39.53
2018-05-02T13:09:55.040Z,39.72
2018-05-02T13:11:05.219Z,39.53
2018-05-02T13:12:15.466Z,39.33
2018-05-02T13:13:25.642Z,39.33
2018-05-02T13:14:35.783Z,39.33
2018-05-02T13:15:45.992Z,39.33
2018-05-02T13:16:56.209Z,39.43
2018-05-02T13:18:05.500Z,39.43
2018-05-02T13:19:15.705Z,39.33
2018-05-02T13:20:25.866Z,39.53
2018-05-02T13:21:36.273Z,39.41
2018-05-02T13:22:46.459Z,39.72
2018-05-02T13:23:56.351Z,39.6
2018-05-02T13:25:06.502Z,39.7
2018-05-02T13:26:16.632Z,40.08
2018-05-02T13:27:26.760Z,40.37
2018-05-02T13:28:36.964Z,40.37
2018-05-02T13:29:47.179Z,40.17
2018-05-02T13:30:57.540Z,40.56
2018-05-02T13:32:07.796Z,40.56
2018-05-02T13:33:18.022Z,40.84
2018-05-02T13:34:28.525Z,40.58
2018-05-02T13:35:38.423Z,40.58
2018-05-02T13:36:48.577Z,40.1
2018-05-02T13:37:58.809Z,40.29
2018-05-02T13:39:08.966Z,40.39
2018-05-02T13:40:19.112Z,40.48
2018-05-02T13:41:29.262Z,40.29
2018-05-02T13:42:39.407Z,40.2
2018-05-02T13:43:49.340Z,40.48
2018-05-02T13:44:59.718Z,40.58
2018-05-02T13:46:09.917Z,40.29
2018-05-02T13:47:20.115Z,40.77
2018-05-02T13:48:30.392Z,40.77
2018-05-02T13:49:40.565Z,40.96
2018-05-02T13:50:50.846Z,40.67
2018-05-02T13:52:01.038Z,40.67
2018-05-02T13:53:10.960Z,41.16
2018-05-02T13:54:21.207Z,40.99
2018-05-02T13:55:31.521Z,40.22
2018-05-02T13:56:41.543Z,40.29
2018-05-02T13:57:51.483Z,40.58
2018-05-02T13:59:01.635Z,40.58
2018-05-02T14:00:11.840Z,40.7
2018-05-02T14:01:21.985Z,40.77
2018-05-02T14:02:32.137Z,40.96
2018-05-02T14:03:42.322Z,40.89
2018-05-02T14:04:52.545Z,40.99
2018-05-02T14:06:02.835Z,40.89
2018-05-02T14:07:12.722Z,40.6
2018-05-02T14:08:22.602Z,40.77
2018-05-02T14:09:32.968Z,40.58
2018-05-02T14:10:43.149Z,40.48
2018-05-02T14:11:53.338Z,40.58
2018-05-02T14:13:02.975Z,40.48
2018-05-02T14:14:12.866Z,40.29
2018-05-02T14:15:23.073Z,40.17
2018-05-02T14:16:33.271Z,40.29
2018-05-02T14:17:43.454Z,40.27
2018-05-02T14:18:53.619Z,39.89
2018-05-02T14:20:03.670Z,39.41
2018-05-02T14:21:13.827Z,39.33
2018-05-02T14:22:23.982Z,39.12
2018-05-02T14:23:33.881Z,39.03
2018-05-02T14:24:43.716Z,39.04
2018-05-02T14:25:54.095Z,38.95
2018-05-02T14:27:04.290Z,38.45
2018-05-02T14:28:14.471Z,38.47
2018-05-02T14:29:24.674Z,38.83
2018-05-02T14:30:34.828Z,39.14
2018-05-02T14:31:44.619Z,39.31
2018-05-02T14:32:54.954Z,39.31
2018-05-02T14:34:05.206Z,39.5
2018-05-02T14:35:15.361Z,39.89
2018-05-02T14:36:25.621Z,40.27
2018-05-02T14:37:35.787Z,40.66
2018-05-02T14:38:45.958Z,40.87
2018-05-02T14:39:55.494Z,40.77
2018-05-02T14:41:05.670Z,40.58
2018-05-02T14:42:15.877Z,40.77
2018-05-02T14:43:26.104Z,40.58
2018-05-02T14:44:36.265Z,40.58
2018-05-02T14:45:46.448Z,40.96
2018-05-02T14:46:56.677Z,40.77
2018-05-02T14:48:06.934Z,40.96
2018-05-02T14:49:16.852Z,40.77
2018-05-02T14:50:26.997Z,41.25
2018-05-02T14:51:37.165Z,41.71
2018-05-02T14:52:47.360Z,42
2018-05-02T14:53:57.251Z,42.19
2018-05-02T14:55:07.403Z,42.57
2018-05-02T14:56:17.534Z,42.29
2018-05-02T14:57:27.465Z,42.38
2018-05-02T14:58:37.800Z,42.29
2018-05-02T14:59:47.989Z,42.19
2018-05-02T15:00:58.167Z,42.57
2018-05-02T15:02:08.709Z,42.38
2018-05-02T15:03:19.189Z,42.19
2018-05-02T15:04:29.338Z,42.57
2018-05-02T15:05:39.627Z,42.29
2018-05-02T15:06:49.787Z,42